Time;durP1;ratioP1;P1;durP2;ratioP2;P2;SDS_P1;SDS_P2;PMS_P1;PMS_P2;Temp;Humidity;BMP_temperature;BMP_pressure;BME280_temperature;BME280_humidity;BME280_pressure;Samples;Min_cycle;Max_cycle;Signal;HPM_P1;HPM_P2
2022/05/22 00:00:40;;;;;;;6.63;1.43;;;;;;;12.99;77.26;100929.78;5040822;28;20199;-79
2022/05/22 00:03:08;;;;;;;1.87;1.63;;;;;;;12.96;77.16;100921.97;5046531;28;20204;-81
2022/05/22 00:05:34;;;;;;;2.80;1.30;;;;;;;12.94;76.74;100935.09;5037688;28;20202;-81
2022/05/22 00:08:02;;;;;;;3.13;1.60;;;;;;;12.77;76.26;100942.47;5029720;28;20222;-82
2022/05/22 00:10:30;;;;;;;1.77;1.40;;;;;;;12.79;77.14;100925.81;5033971;28;20402;-81
2022/05/22 00:12:56;;;;;;;1.77;1.20;;;;;;;12.92;76.85;100921.16;5043127;28;20194;-80
2022/05/22 00:15:22;;;;;;;1.83;1.50;;;;;;;12.95;76.92;100915.03;5046373;28;20201;-80
2022/05/22 00:17:49;;;;;;;4.23;1.80;;;;;;;12.96;76.53;100924.59;5056238;28;20220;-80
2022/05/22 00:20:15;;;;;;;4.77;1.70;;;;;;;13.01;76.15;100934.09;5071856;28;20265;-80
2022/05/22 00:22:42;;;;;;;3.47;2.00;;;;;;;13.02;76.08;100948.94;5050597;28;20203;-78
2022/05/22 00:25:11;;;;;;;5.17;1.50;;;;;;;12.68;75.80;100978.41;5025882;28;20721;-81
2022/05/22 00:27:39;;;;;;;4.23;1.70;;;;;;;12.48;76.25;100957.81;5025974;28;20237;-79
2022/05/22 00:30:07;;;;;;;3.33;1.80;;;;;;;12.38;77.32;100927.47;5041655;28;20204;-78
2022/05/22 00:32:33;;;;;;;3.77;1.70;;;;;;;12.13;77.86;100911.38;5058774;28;20689;-81
2022/05/22 00:35:00;;;;;;;2.37;1.90;;;;;;;12.04;78.37;100880.13;5059258;28;20227;-80
2022/05/22 00:37:26;;;;;;;4.07;2.17;;;;;;;12.05;78.75;100871.38;5058706;28;20247;-78
2022/05/22 00:39:53;;;;;;;3.17;1.70;;;;;;;12.10;79.16;100849.47;5057904;28;20212;-80
2022/05/22 00:42:23;;;;;;;2.77;1.67;;;;;;;12.10;80.41;100827.66;5058241;28;20703;-78
2022/05/22 00:44:50;;;;;;;3.40;1.80;;;;;;;12.16;80.49;100811.84;5058616;28;20202;-78
2022/05/22 00:47:18;;;;;;;4.60;1.63;;;;;;;12.24;80.30;100806.47;5058372;28;20376;-79
2022/05/22 00:49:45;;;;;;;3.97;1.60;;;;;;;12.27;79.49;100833.44;5058262;28;20759;-80
2022/05/22 00:52:15;;;;;;;2.40;1.67;;;;;;;12.33;79.02;100835.09;5058114;28;20243;-80
2022/05/22 00:54:48;;;;;;;3.87;1.80;;;;;;;12.42;79.02;100839.25;5057691;28;20225;-79
2022/05/22 00:57:20;;;;;;;3.73;2.17;;;;;;;12.40;78.97;100847.16;5056743;28;20212;-80
2022/05/22 00:59:52;;;;;;;2.50;1.97;;;;;;;12.36;79.25;100844.63;5027322;28;20216;-81
2022/05/22 01:02:20;;;;;;;3.63;1.80;;;;;;;12.27;79.88;100824.75;5026763;28;20211;-80
2022/05/22 01:04:49;;;;;;;3.60;2.07;;;;;;;12.12;78.96;100836.34;5028555;28;20200;-81
2022/05/22 01:07:17;;;;;;;4.43;1.90;;;;;;;12.06;79.45;100834.72;5027915;28;20207;-78
2022/05/22 01:09:44;;;;;;;3.17;2.00;;;;;;;12.12;80.81;100805.81;5028643;28;20662;-81
2022/05/22 01:12:16;;;;;;;1.93;1.60;;;;;;;12.17;81.25;100787.41;5026422;28;20205;-81
2022/05/22 01:14:43;;;;;;;2.63;1.70;;;;;;;12.16;81.35;100777.81;5026326;28;20222;-78
2022/05/22 01:17:12;;;;;;;9.47;1.80;;;;;;;12.18;81.34;100775.19;5034365;28;20216;-81
2022/05/22 01:19:39;;;;;;;4.80;1.80;;;;;;;12.09;80.10;100802.38;5036665;28;20592;-82
2022/05/22 01:22:09;;;;;;;5.07;1.80;;;;;;;12.15;80.95;100785.69;5037353;28;20578;-81
2022/05/22 01:24:36;;;;;;;5.57;2.00;;;;;;;12.21;81.21;100785.56;5036218;28;20209;-81
2022/05/22 01:27:04;;;;;;;3.00;1.70;;;;;;;12.27;81.03;100786.34;5037605;28;20279;-80
2022/05/22 01:29:31;;;;;;;4.13;1.60;;;;;;;12.37;80.85;100800.09;5041015;28;20193;-79
2022/05/22 01:31:58;;;;;;;2.50;1.60;;;;;;;12.43;80.10;100817.44;5016683;28;20206;-78
2022/05/22 01:34:24;;;;;;;3.23;1.80;;;;;;;12.46;79.83;100819.97;5017514;28;20233;-81
2022/05/22 01:36:51;;;;;;;5.23;1.73;;;;;;;12.50;79.59;100837.34;5017397;28;20200;-80
2022/05/22 01:39:19;;;;;;;3.63;1.93;;;;;;;12.42;79.45;100839.25;5016366;28;20241;-81
2022/05/22 01:41:45;;;;;;;3.00;1.73;;;;;;;12.43;80.02;100834.00;5017122;28;20256;-80
2022/05/22 01:44:34;;;;;;;3.27;1.50;;;;;;;12.47;79.98;100829.56;5016490;28;20708;-79
2022/05/22 01:47:00;;;;;;;4.63;1.80;;;;;;;12.37;79.57;100862.03;5013733;28;20604;-81
2022/05/22 01:49:26;;;;;;;2.07;1.50;;;;;;;12.23;79.31;100863.19;5016994;28;20291;-81
2022/05/22 01:51:53;;;;;;;4.80;1.50;;;;;;;12.26;80.86;100829.09;5017616;28;20210;-80
2022/05/22 01:54:21;;;;;;;2.57;1.60;;;;;;;12.29;80.49;100815.09;5017064;28;20739;-78
2022/05/22 01:56:47;;;;;;;3.40;1.87;;;;;;;12.28;80.38;100819.44;5016915;28;20210;-79
2022/05/22 01:59:13;;;;;;;4.60;2.13;;;;;;;12.29;80.46;100810.72;5049816;28;20228;-81
2022/05/22 02:01:40;;;;;;;3.13;2.00;;;;;;;12.31;80.14;100819.41;5018021;28;20206;-80
2022/05/22 02:04:06;;;;;;;4.07;1.60;;;;;;;12.38;79.96;100827.13;5017189;28;20583;-81
2022/05/22 02:06:33;;;;;;;3.47;1.90;;;;;;;12.32;79.62;100838.59;5016957;28;20253;-81
2022/05/22 02:08:59;;;;;;;4.20;1.73;;;;;;;12.34;79.70;100839.41;5015446;28;20279;-81
2022/05/22 02:11:27;;;;;;;2.87;1.77;;;;;;;12.35;80.02;100828.06;5016998;28;20206;-79
2022/05/22 02:13:53;;;;;;;4.07;1.80;;;;;;;12.31;80.54;100816.78;5016686;28;20257;-80
2022/05/22 02:16:19;;;;;;;4.30;2.27;;;;;;;12.32;80.43;100815.03;5016078;28;20228;-80
2022/05/22 02:18:46;;;;;;;2.93;1.63;;;;;;;12.34;79.67;100828.09;5016207;28;20237;-80
2022/05/22 02:21:12;;;;;;;6.30;2.10;;;;;;;12.28;80.12;100837.78;5016856;28;20210;-81
2022/05/22 02:23:39;;;;;;;3.37;1.60;;;;;;;12.26;80.17;100825.63;5017503;28;20216;-80
2022/05/22 02:26:10;;;;;;;2.77;1.80;;;;;;;12.23;79.87;100830.91;5015881;28;20209;-79
2022/05/22 02:28:39;;;;;;;3.80;1.50;;;;;;;12.27;80.05;100803.81;5039740;28;20252;-79
2022/05/22 02:31:06;;;;;;;3.80;2.00;;;;;;;12.31;80.13;100798.47;5027371;28;20212;-81
2022/05/22 02:33:32;;;;;;;3.50;1.70;;;;;;;12.25;80.32;100788.13;5016815;28;20212;-81
2022/05/22 02:36:00;;;;;;;2.30;1.87;;;;;;;12.26;79.96;100795.06;5016152;28;20672;-80
2022/05/22 02:38:27;;;;;;;2.37;1.50;;;;;;;12.20;79.98;100797.81;5016433;28;20234;-79
2022/05/22 02:40:53;;;;;;;5.40;1.90;;;;;;;12.11;80.39;100783.16;5016084;28;20253;-81
2022/05/22 02:43:20;;;;;;;3.43;1.77;;;;;;;12.12;80.33;100770.94;5016368;28;20580;-80
2022/05/22 02:45:48;;;;;;;2.90;2.37;;;;;;;12.15;79.98;100777.84;5016646;28;20214;-80
2022/05/22 02:48:14;;;;;;;3.87;1.77;;;;;;;12.11;80.05;100791.00;5016564;28;20219;-80
2022/05/22 02:50:42;;;;;;;2.53;1.80;;;;;;;12.11;80.31;100792.78;5015596;28;20206;-81
2022/05/22 02:53:09;;;;;;;3.80;1.87;;;;;;;12.07;80.10;100799.81;5016437;28;20214;-81
2022/05/22 02:55:35;;;;;;;4.33;1.83;;;;;;;11.99;80.70;100786.03;5016131;28;20227;-79
2022/05/22 02:58:02;;;;;;;3.07;1.37;;;;;;;11.99;80.95;100772.94;5024296;28;20603;-79
2022/05/22 03:00:30;;;;;;;3.90;1.80;;;;;;;12.02;80.33;100775.47;5034109;28;20215;-81
2022/05/22 03:02:59;;;;;;;3.23;1.63;;;;;;;12.03;80.29;100781.56;5015749;28;20671;-79
2022/05/22 03:05:26;;;;;;;4.20;1.90;;;;;;;12.05;80.09;100790.25;5016197;28;20266;-80
2022/05/22 03:07:53;;;;;;;4.63;2.40;;;;;;;12.04;79.98;100793.78;5015897;28;20714;-81
2022/05/22 03:10:20;;;;;;;3.67;1.60;;;;;;;12.00;80.38;100805.19;5015591;28;20214;-79
2022/05/22 03:12:46;;;;;;;3.30;2.10;;;;;;;11.89;80.33;100805.38;5015727;28;20581;-80
2022/05/22 03:15:14;;;;;;;3.13;1.67;;;;;;;11.86;80.47;100803.66;5015730;28;20230;-80
2022/05/22 03:17:41;;;;;;;3.10;1.70;;;;;;;11.86;80.86;100798.41;5015557;28;20304;-81
2022/05/22 03:20:11;;;;;;;3.37;1.93;;;;;;;11.90;80.77;100800.13;5015193;28;20204;-81
2022/05/22 03:22:37;;;;;;;5.03;1.63;;;;;;;11.85;80.96;100804.56;5015430;28;20217;-81
2022/05/22 03:25:06;;;;;;;4.23;2.20;;;;;;;11.84;81.05;100792.34;5014381;28;20263;-81
2022/05/22 03:27:33;;;;;;;2.83;1.80;;;;;;;11.83;81.42;100792.38;5021586;28;20227;-78
2022/05/22 03:29:59;;;;;;;3.83;2.13;;;;;;;11.85;81.63;100785.38;5054941;28;20553;-81
2022/05/22 03:32:26;;;;;;;3.10;1.90;;;;;;;11.87;81.27;100776.63;5055233;28;20219;-81
2022/05/22 03:34:52;;;;;;;3.60;1.90;;;;;;;11.85;81.53;100785.38;5055293;28;20228;-82
2022/05/22 03:37:20;;;;;;;3.23;1.77;;;;;;;11.81;81.64;100775.84;5055239;28;20282;-82
2022/05/22 03:39:47;;;;;;;4.70;2.30;;;;;;;11.76;81.57;100777.72;5055421;28;20203;-81
2022/05/22 03:42:13;;;;;;;2.30;1.83;;;;;;;11.74;82.22;100754.19;5055743;28;20306;-81
2022/05/22 03:44:40;;;;;;;4.00;2.00;;;;;;;11.80;82.20;100758.44;5055962;28;20209;-82
2022/05/22 03:47:06;;;;;;;3.27;1.73;;;;;;;11.79;82.36;100754.09;5055430;28;20212;-82
2022/05/22 03:49:33;;;;;;;4.83;2.37;;;;;;;11.80;82.82;100730.53;5055219;28;20262;-82
2022/05/22 03:52:00;;;;;;;4.33;2.20;;;;;;;11.60;82.37;100750.97;5055753;28;20215;-80
2022/05/22 03:54:28;;;;;;;3.60;2.13;;;;;;;11.68;83.04;100739.47;5055053;28;20231;-79
2022/05/22 03:56:56;;;;;;;4.23;2.30;;;;;;;11.76;83.13;100728.03;5054976;28;20210;-79
2022/05/22 03:59:23;;;;;;;3.47;1.97;;;;;;;11.67;82.48;100744.72;5036524;28;20226;-81
2022/05/22 04:01:50;;;;;;;4.70;2.47;;;;;;;11.71;82.68;100728.09;5056454;28;20203;-82
2022/05/22 04:04:17;;;;;;;5.57;2.43;;;;;;;11.81;82.55;100718.31;5056761;28;20204;-81
2022/05/22 04:06:43;;;;;;;4.17;1.73;;;;;;;11.80;82.45;100735.78;5056133;28;20203;-78
2022/05/22 04:09:10;;;;;;;3.73;2.57;;;;;;;11.84;82.61;100732.19;5055964;28;20281;-82
2022/05/22 04:11:40;;;;;;;3.27;2.13;;;;;;;11.86;82.88;100727.78;5056090;28;20214;-80
2022/05/22 04:14:06;;;;;;;6.70;1.90;;;;;;;11.79;82.14;100743.63;5055884;28;20450;-82
2022/05/22 04:16:33;;;;;;;3.83;2.67;;;;;;;11.60;82.52;100745.75;5055408;28;20203;-81
2022/05/22 04:18:59;;;;;;;4.47;1.97;;;;;;;11.30;83.92;100711.44;5055296;28;20232;-82
2022/05/22 04:21:26;;;;;;;3.40;2.07;;;;;;;11.03;85.08;100684.00;5056212;28;20234;-81
2022/05/22 04:26:38;;;;;;;6.57;2.70;;;;;;;10.98;85.99;100625.75;5055834;28;20208;-81
2022/05/22 04:29:04;;;;;;;5.07;2.70;;;;;;;10.97;85.90;100637.97;5041293;28;20243;-82
2022/05/22 04:31:31;;;;;;;5.43;2.90;;;;;;;11.00;85.81;100637.03;5017181;28;20261;-81
2022/05/22 04:33:57;;;;;;;4.43;2.63;;;;;;;11.07;86.49;100623.00;5020421;28;20204;-80
2022/05/22 04:36:24;;;;;;;4.13;2.40;;;;;;;11.15;86.16;100617.63;5021681;28;20638;-80
2022/05/22 04:38:50;;;;;;;4.17;2.10;;;;;;;11.24;85.17;100660.13;5019923;28;20600;-80
2022/05/22 04:41:18;;;;;;;4.10;2.60;;;;;;;11.25;84.38;100682.75;5020122;28;20213;-81
2022/05/22 04:43:46;;;;;;;5.63;2.97;;;;;;;11.35;85.12;100667.75;5021060;28;20210;-83
2022/05/22 04:46:12;;;;;;;3.73;2.60;;;;;;;11.24;84.48;100688.88;5020632;28;20204;-79
2022/05/22 04:48:39;;;;;;;6.10;2.43;;;;;;;11.22;83.77;100700.22;5019838;28;20236;-81
2022/05/22 04:51:05;;;;;;;4.03;2.30;;;;;;;11.30;84.09;100699.22;5020912;28;20211;-82
2022/05/22 04:53:32;;;;;;;5.13;2.93;;;;;;;11.35;83.84;100706.09;5019666;28;20218;-80
2022/05/22 04:55:59;;;;;;;7.00;2.13;;;;;;;11.39;84.25;100692.94;5020506;28;20282;-79
2022/05/22 04:58:25;;;;;;;3.20;2.30;;;;;;;11.41;84.48;100690.31;5031068;28;20235;-82
2022/05/22 05:00:55;;;;;;;4.80;2.53;;;;;;;11.36;83.16;100720.88;5039807;28;20208;-80
2022/05/22 05:03:21;;;;;;;6.27;2.97;;;;;;;11.41;83.41;100716.44;5039756;28;20216;-80
2022/05/22 05:05:57;;;;;;;4.87;2.43;;;;;;;11.46;83.96;100717.25;5039632;28;20634;-79
2022/05/22 05:08:24;;;;;;;8.27;2.73;;;;;;;11.41;83.63;100714.69;5039341;28;20310;-79
2022/05/22 05:10:51;;;;;;;4.73;2.20;;;;;;;11.31;82.55;100742.72;5039241;28;20216;-80
2022/05/22 05:13:18;;;;;;;6.77;2.60;;;;;;;11.21;82.64;100758.59;5039212;28;20715;-80
2022/05/22 05:15:45;;;;;;;6.27;3.23;;;;;;;11.39;83.09;100752.22;5038896;28;20225;-82
2022/05/22 05:18:13;;;;;;;4.00;2.47;;;;;;;11.59;82.43;100770.16;5039348;28;20224;-80
2022/05/22 05:20:41;;;;;;;6.17;2.43;;;;;;;11.73;82.27;100779.50;5039178;28;20697;-81
2022/05/22 05:23:08;;;;;;;4.67;2.90;;;;;;;11.64;82.76;100763.97;5039190;28;20229;-81
2022/05/22 05:25:34;;;;;;;5.07;3.07;;;;;;;11.54;83.31;100749.34;5037893;28;20205;-80
2022/05/22 05:28:00;;;;;;;3.03;2.40;;;;;;;11.49;83.73;100738.09;5043755;28;20229;-79
2022/05/22 05:30:27;;;;;;;4.80;3.20;;;;;;;11.31;84.25;100721.81;5023957;28;20592;-79
2022/05/22 05:32:57;;;;;;;4.90;3.47;;;;;;;11.37;85.16;100699.97;5019484;28;20208;-80
2022/05/22 05:35:24;;;;;;;4.13;3.27;;;;;;;11.22;85.13;100695.00;5019542;28;20229;-79
2022/05/22 05:37:51;;;;;;;5.13;3.47;;;;;;;11.29;84.96;100686.16;5020613;28;20263;-84
2022/05/22 05:40:17;;;;;;;5.50;3.20;;;;;;;11.26;85.21;100692.31;5019247;28;20210;-82
2022/05/22 05:42:44;;;;;;;9.73;3.83;;;;;;;11.35;85.12;100690.44;5019263;28;20216;-83
2022/05/22 05:45:15;;;;;;;4.00;2.60;;;;;;;11.28;85.12;100713.22;5019744;28;20214;-84
2022/05/22 05:47:44;;;;;;;3.97;3.37;;;;;;;11.29;85.95;100688.78;5020433;28;20316;-84
2022/05/22 05:50:12;;;;;;;4.83;3.50;;;;;;;11.40;86.48;100670.31;5020838;28;20231;-84
2022/05/22 05:52:40;;;;;;;4.43;3.27;;;;;;;11.42;87.36;100651.09;5020682;28;20221;-83
2022/05/22 05:55:07;;;;;;;4.27;3.80;;;;;;;11.38;87.86;100625.00;5020454;28;20233;-83
2022/05/22 05:57:34;;;;;;;4.37;3.87;;;;;;;11.44;88.19;100617.94;5024184;28;20233;-82
2022/05/22 06:00:00;;;;;;;9.40;3.67;;;;;;;11.65;88.15;100608.78;5046450;28;20234;-84
2022/05/22 06:02:27;;;;;;;6.27;3.60;;;;;;;11.78;87.14;100624.25;5017522;28;20556;-81
2022/05/22 06:04:53;;;;;;;5.47;3.30;;;;;;;11.93;86.86;100642.22;5017837;28;20263;-83
2022/05/22 06:07:20;;;;;;;4.00;2.93;;;;;;;12.14;85.73;100672.31;5017011;28;20212;-84
2022/05/22 06:09:48;;;;;;;5.33;3.53;;;;;;;12.25;85.25;100690.41;5016849;28;20629;-83
2022/05/22 06:12:14;;;;;;;3.50;3.20;;;;;;;12.30;85.29;100692.03;5017365;28;20273;-83
2022/05/22 06:14:41;;;;;;;5.27;3.47;;;;;;;12.44;84.39;100703.94;5017704;28;20210;-83
2022/05/22 06:17:08;;;;;;;4.03;3.63;;;;;;;12.18;83.79;100733.31;5016678;28;20212;-82
2022/05/22 06:19:54;;;;;;;4.00;3.53;;;;;;;12.12;83.54;100748.22;5017298;28;20212;-82
2022/05/22 06:22:22;;;;;;;4.63;3.30;;;;;;;12.18;82.15;100786.50;5017648;28;20616;-82
2022/05/22 06:24:50;;;;;;;4.10;2.80;;;;;;;12.04;80.30;100827.78;5016817;28;20676;-82
2022/05/22 06:27:17;;;;;;;4.63;3.90;;;;;;;12.07;80.64;100838.19;5019028;28;20208;-82
2022/05/22 06:29:44;;;;;;;5.67;3.40;;;;;;;12.14;80.09;100842.41;5050224;28;20200;-82
2022/05/22 06:32:12;;;;;;;4.90;3.47;;;;;;;12.23;79.87;100836.13;5018402;28;20666;-81
2022/05/22 06:34:41;;;;;;;5.93;4.03;;;;;;;12.38;79.24;100858.53;5018916;28;20260;-82
2022/05/22 06:37:08;;;;;;;5.57;3.50;;;;;;;12.49;79.04;100864.44;5018363;28;20209;-82
2022/05/22 06:39:51;;;;;;;4.17;3.40;;;;;;;12.42;78.77;100865.44;5018384;28;20208;-83
2022/05/22 06:42:22;;;;;;;7.30;3.50;;;;;;;12.33;79.07;100861.25;5018760;28;20688;-83
2022/05/22 06:44:54;;;;;;;5.13;4.00;;;;;;;12.32;79.96;100839.44;5016881;28;20220;-83
2022/05/22 06:47:20;;;;;;;6.60;4.07;;;;;;;12.41;79.77;100838.41;5016367;28;20252;-83
2022/05/22 06:49:47;;;;;;;5.13;3.60;;;;;;;12.60;79.85;100830.16;5016688;28;20219;-83
2022/05/22 06:52:14;;;;;;;5.13;3.67;;;;;;;12.38;79.77;100838.47;5016532;28;20782;-82
2022/05/22 06:54:40;;;;;;;6.23;4.23;;;;;;;12.24;81.10;100820.41;5015946;28;20723;-82
2022/05/22 06:57:07;;;;;;;5.57;3.80;;;;;;;12.42;80.92;100803.47;5017852;28;20649;-82
2022/05/22 06:59:34;;;;;;;6.57;4.40;;;;;;;12.58;80.34;100811.84;5038665;28;20628;-83
2022/05/22 07:02:02;;;;;;;10.37;4.20;;;;;;;12.46;81.22;100791.19;5056563;28;20279;-83
2022/05/22 07:04:30;;;;;;;9.27;4.43;;;;;;;12.62;81.33;100782.09;5056386;28;20226;-83
2022/05/22 07:06:56;;;;;;;7.13;4.43;;;;;;;12.79;80.77;100783.50;5055944;28;20238;-82
2022/05/22 07:09:23;;;;;;;5.33;4.37;;;;;;;12.76;79.95;100822.84;5055581;28;20294;-84
2022/05/22 07:11:53;;;;;;;7.93;4.87;;;;;;;12.79;79.89;100825.41;5056590;28;20214;-83
2022/05/22 07:14:21;;;;;;;5.37;4.50;;;;;;;12.90;79.94;100826.91;5055973;28;20311;-83
2022/05/22 07:16:48;;;;;;;5.23;4.57;;;;;;;13.02;79.39;100851.09;5057566;28;20700;-84
2022/05/22 07:19:17;;;;;;;9.47;4.67;;;;;;;13.21;79.14;100854.16;5056112;28;20227;-83
2022/05/22 07:21:43;;;;;;;5.57;4.63;;;;;;;13.39;78.88;100852.91;5064169;28;20252;-83
2022/05/22 07:24:09;;;;;;;5.43;4.30;;;;;;;13.66;77.73;100883.69;5066458;28;20826;-82
2022/05/22 07:26:37;;;;;;;8.13;4.73;;;;;;;13.86;76.28;100925.19;5064854;28;20232;-82
2022/05/22 07:29:03;;;;;;;8.23;5.00;;;;;;;13.61;75.15;100959.00;5052235;28;20226;-80
2022/05/22 07:31:32;;;;;;;6.47;4.43;;;;;;;13.39;75.76;100961.25;5055846;28;20615;-81
2022/05/22 07:34:00;;;;;;;6.83;5.17;;;;;;;13.44;75.76;100948.91;5052456;28;20235;-82
2022/05/22 07:36:27;;;;;;;5.70;4.90;;;;;;;13.60;75.77;100938.94;5055622;28;20227;-83
2022/05/22 07:38:53;;;;;;;4.60;4.20;;;;;;;13.70;75.30;100963.19;5055109;28;20236;-81
2022/05/22 07:41:20;;;;;;;6.47;4.70;;;;;;;13.75;74.37;100982.31;5052520;28;20251;-81
2022/05/22 07:43:46;;;;;;;7.00;4.60;;;;;;;13.76;73.55;101004.19;5052232;28;20295;-82
2022/05/22 07:46:13;;;;;;;6.70;3.60;;;;;;;13.65;71.17;101067.38;5052266;28;20261;-80
2022/05/22 07:48:40;;;;;;;6.00;3.40;;;;;;;13.88;71.57;101080.00;5051455;28;20228;-82
2022/05/22 07:51:09;;;;;;;4.87;3.17;;;;;;;14.00;71.42;101082.34;5051875;28;20588;-81
2022/05/22 07:53:36;;;;;;;5.90;2.63;;;;;;;14.08;68.16;101172.28;5052108;28;20211;-81
2022/05/22 07:56:02;;;;;;;3.90;2.50;;;;;;;13.96;69.71;101185.66;5052189;28;20254;-82
2022/05/22 07:58:30;;;;;;;6.37;3.33;;;;;;;13.98;67.04;101225.03;5047238;28;20278;-81
2022/05/22 08:00:58;;;;;;;4.60;3.23;;;;;;;13.92;67.80;101217.28;5038066;28;20196;-82
2022/05/22 08:03:24;;;;;;;4.30;3.20;;;;;;;13.94;69.60;101179.59;5051782;28;20250;-81
2022/05/22 08:05:53;;;;;;;5.03;2.80;;;;;;;13.96;68.27;101180.41;5051832;28;20204;-82
2022/05/22 08:08:21;;;;;;;6.03;3.00;;;;;;;14.20;68.78;101173.78;5055508;28;20613;-82
2022/05/22 08:10:47;;;;;;;3.47;2.93;;;;;;;14.27;68.67;101164.88;5055199;28;20265;-83
2022/05/22 08:13:14;;;;;;;5.57;3.27;;;;;;;14.46;68.79;101154.78;5055723;28;20733;-82
2022/05/22 08:15:43;;;;;;;6.43;2.50;;;;;;;14.36;66.75;101224.19;5055533;28;20233;-82
2022/05/22 08:18:11;;;;;;;4.00;2.67;;;;;;;14.16;64.96;101287.66;5055667;28;20220;-84
2022/05/22 08:20:39;;;;;;;5.63;2.23;;;;;;;14.18;65.06;101295.50;5055098;28;20702;-82
2022/05/22 08:23:08;;;;;;;3.37;2.50;;;;;;;14.05;65.34;101311.50;5055950;28;20258;-82
2022/05/22 08:25:36;;;;;;;4.33;2.17;;;;;;;14.18;65.80;101290.25;5054105;28;20232;-82
2022/05/22 08:28:04;;;;;;;5.20;2.20;;;;;;;14.21;64.27;101325.19;5053127;28;20225;-82
2022/05/22 08:30:31;;;;;;;3.47;1.90;;;;;;;14.30;64.30;101332.88;5036206;28;20263;-82
2022/05/22 08:32:58;;;;;;;5.87;2.30;;;;;;;14.45;63.82;101326.44;5023982;28;20251;-83
2022/05/22 08:35:27;;;;;;;7.33;2.10;;;;;;;14.65;64.29;101291.91;5028391;28;20681;-82
2022/05/22 08:37:54;;;;;;;2.43;1.77;;;;;;;14.64;62.37;101360.25;5023828;28;20226;-82
2022/05/22 08:40:23;;;;;;;5.77;2.13;;;;;;;14.75;62.57;101375.81;5023196;28;20267;-82
2022/05/22 08:42:56;;;;;;;3.13;1.50;;;;;;;14.77;61.71;101389.78;5023854;28;20296;-82
2022/05/22 08:45:28;;;;;;;4.13;2.20;;;;;;;14.81;62.39;101365.16;5028064;28;20203;-82
2022/05/22 08:48:02;;;;;;;4.87;2.10;;;;;;;14.72;60.82;101381.97;5023440;28;20287;-82
2022/05/22 08:50:30;;;;;;;6.73;2.40;;;;;;;14.85;61.64;101393.09;5023003;28;20296;-82
2022/05/22 08:53:01;;;;;;;5.53;2.00;;;;;;;14.83;61.10;101422.03;5025756;28;20208;-81
2022/05/22 09:01:07;;;;;;;4.40;1.90;;;;;;;15.18;62.22;101359.06;5024947;28;20205;-81
2022/05/22 09:03:40;;;;;;;5.57;3.27;;;;;;;14.98;65.02;101312.19;5024289;28;20190;-80
2022/05/22 09:06:07;;;;;;;4.60;3.10;;;;;;;14.88;64.43;101277.34;5022423;28;20187;-80
2022/05/22 09:08:41;;;;;;;3.87;2.17;;;;;;;14.73;62.92;101327.63;5022100;28;20225;-79
2022/05/22 09:11:14;;;;;;;5.03;2.47;;;;;;;14.78;63.32;101281.09;5023753;28;20198;-80
2022/05/22 09:13:47;;;;;;;4.07;1.47;;;;;;;14.73;58.46;101427.50;5020514;28;20210;-80
2022/05/22 09:16:19;;;;;;;3.20;1.50;;;;;;;14.71;57.08;101480.13;5034297;28;20221;-80
2022/05/22 09:18:51;;;;;;;2.43;1.50;;;;;;;14.57;57.72;101516.28;5033372;28;20276;-80
2022/05/22 09:21:31;;;;;;;2.50;1.53;;;;;;;14.75;58.90;101473.91;5034017;28;20194;-79
2022/05/22 09:24:00;;;;;;;4.93;1.50;;;;;;;15.14;59.35;101417.88;5034960;28;20704;-80
2022/05/22 09:26:40;;;;;;;3.20;1.63;;;;;;;15.21;56.80;101469.47;5035312;28;20210;-80
2022/05/22 09:29:19;;;;;;;2.90;1.67;;;;;;;15.22;57.75;101472.06;5040534;28;20631;-79
2022/05/22 09:31:50;;;;;;;3.57;1.50;;;;;;;15.44;59.39;101464.56;5054727;28;20608;-80
2022/05/22 09:34:24;;;;;;;4.37;1.80;;;;;;;15.60;56.69;101464.19;5035993;28;20249;-81
2022/05/22 09:37:03;;;;;;;5.10;2.27;;;;;;;15.63;57.28;101490.44;5039049;28;20210;-82
2022/05/22 09:39:46;;;;;;;2.27;2.00;;;;;;;15.54;58.37;101454.69;5034023;28;20194;-81
2022/05/22 09:42:24;;;;;;;3.83;2.10;;;;;;;15.66;58.80;101429.84;5039410;28;20210;-80
2022/05/22 09:45:10;;;;;;;3.17;1.97;;;;;;;15.76;57.71;101438.44;5039697;28;20207;-82
2022/05/22 09:48:00;;;;;;;2.40;1.70;;;;;;;15.59;57.64;101491.41;5039891;28;20696;-82
2022/05/22 09:50:30;;;;;;;3.33;1.67;;;;;;;15.28;56.75;101502.59;5038589;28;20203;-81
2022/05/22 09:53:03;;;;;;;2.23;2.00;;;;;;;15.62;58.20;101463.28;5044274;28;20207;-80
2022/05/22 09:55:42;;;;;;;6.50;1.90;;;;;;;15.97;59.43;101413.31;5044471;28;20206;-80
2022/05/22 09:58:21;;;;;;;3.73;1.60;;;;;;;16.30;58.68;101374.66;5045935;28;20241;-81
2022/05/22 10:00:57;;;;;;;8.07;2.23;;;;;;;16.23;56.82;101478.47;5019538;28;20211;-80
2022/05/22 10:03:36;;;;;;;3.97;1.80;;;;;;;16.45;56.42;101469.13;5020198;28;20206;-80
2022/05/22 10:06:13;;;;;;;3.07;1.77;;;;;;;15.96;55.46;101506.41;5018049;28;20210;-81
2022/05/22 10:08:48;;;;;;;3.57;2.47;;;;;;;15.62;57.05;101504.53;5016912;28;20702;-78
2022/05/22 10:11:21;;;;;;;3.60;1.90;;;;;;;15.75;57.41;101481.44;5033198;28;20650;-81
2022/05/22 10:14:03;;;;;;;4.57;2.10;;;;;;;15.75;59.71;101457.75;5030472;28;20241;-83
2022/05/22 10:16:40;;;;;;;5.10;1.77;;;;;;;15.97;58.17;101421.22;5035845;28;20214;-83
2022/05/22 10:19:24;;;;;;;3.90;1.80;;;;;;;16.03;57.91;101436.84;5034106;28;20275;-81
2022/05/22 10:21:58;;;;;;;3.93;2.30;;;;;;;16.26;57.82;101429.22;5040577;28;20198;-81
2022/05/22 10:24:40;;;;;;;5.03;1.87;;;;;;;16.40;56.16;101473.63;5056770;28;20202;-81
2022/05/22 10:27:25;;;;;;;2.90;1.60;;;;;;;16.40;53.72;101546.56;5056258;28;20178;-83
2022/05/22 10:29:55;;;;;;;2.60;2.10;;;;;;;16.46;52.29;101539.38;5039472;28;20245;-82
2022/05/22 10:32:29;;;;;;;3.63;1.93;;;;;;;16.49;56.28;101533.16;5015441;28;20581;-81
2022/05/22 10:35:03;;;;;;;3.60;2.03;;;;;;;16.58;56.21;101490.72;5016242;28;20242;-81
2022/05/22 10:37:35;;;;;;;5.83;2.73;;;;;;;16.62;55.71;101489.75;5013735;28;20231;-81
2022/05/22 10:40:05;;;;;;;3.30;1.97;;;;;;;16.84;55.36;101489.19;5014101;28;20211;-81
2022/05/22 10:42:45;;;;;;;3.43;2.10;;;;;;;16.89;54.82;101526.84;5014657;28;20229;-81
2022/05/22 10:45:21;;;;;;;3.20;1.97;;;;;;;17.04;55.14;101507.94;5013899;28;20274;-81
2022/05/22 10:47:50;;;;;;;4.37;2.37;;;;;;;17.11;54.17;101500.72;5013134;28;20232;-80
2022/05/22 10:50:20;;;;;;;3.00;2.10;;;;;;;17.14;54.47;101526.16;5013125;28;20614;-80
2022/05/22 10:52:47;;;;;;;3.73;1.90;;;;;;;17.29;53.68;101541.53;5014105;28;20620;-80
2022/05/22 10:55:22;;;;;;;6.00;2.10;;;;;;;17.36;53.83;101523.72;5013877;28;20683;-81
2022/05/22 10:57:56;;;;;;;4.37;2.13;;;;;;;17.11;53.66;101555.28;5022892;28;20239;-80
2022/05/22 11:00:24;;;;;;;3.50;2.10;;;;;;;16.84;53.36;101566.50;5024408;28;20206;-80
2022/05/22 11:02:52;;;;;;;4.03;2.40;;;;;;;16.96;53.72;101538.94;5031968;28;20596;-79
2022/05/22 11:05:22;;;;;;;3.23;1.97;;;;;;;16.95;52.29;101557.47;5031752;28;20248;-80
2022/05/22 11:07:51;;;;;;;3.27;1.60;;;;;;;17.30;54.55;101543.25;5029487;28;20229;-81
2022/05/22 11:10:23;;;;;;;4.37;1.93;;;;;;;17.01;50.70;101595.09;5030182;28;20209;-82
2022/05/22 11:13:00;;;;;;;4.73;1.70;;;;;;;17.34;52.28;101573.06;5031614;28;20226;-78
2022/05/22 11:15:29;;;;;;;4.57;2.20;;;;;;;17.66;53.49;101574.78;5029229;28;20289;-80
2022/05/22 11:18:04;;;;;;;4.87;2.20;;;;;;;17.98;52.59;101557.94;5030924;28;20314;-82
2022/05/22 11:20:31;;;;;;;3.20;1.73;;;;;;;18.24;49.79;101590.59;5028899;28;20670;-79
2022/05/22 11:23:07;;;;;;;3.03;1.73;;;;;;;17.85;50.13;101646.41;5033092;28;20732;-78
2022/05/22 11:25:42;;;;;;;4.63;1.90;;;;;;;18.42;52.38;101563.53;5033403;28;20246;-78
2022/05/22 11:28:22;;;;;;;4.40;1.70;;;;;;;19.07;51.89;101471.34;5029742;28;20230;-79
2022/05/22 11:30:55;;;;;;;4.03;1.80;;;;;;;20.00;48.82;101553.41;5027361;28;20265;-79
2022/05/22 11:33:37;;;;;;;3.83;1.57;;;;;;;20.51;45.51;101671.50;5029945;28;20548;-79
2022/05/22 11:36:14;;;;;;;3.03;1.70;;;;;;;21.95;41.60;101778.69;5030267;28;20208;-78
2022/05/22 11:39:10;;;;;;;2.50;1.40;;;;;;;23.08;39.24;101861.31;5031392;28;20256;-77
2022/05/22 11:41:38;;;;;;;4.07;1.90;;;;;;;22.70;38.40;101875.50;5032690;28;20206;-78